createdAt,value
2018-05-03T00:21:32.878Z,14.00
2018-05-03T00:24:01.767Z,15.70
2018-05-03T00:26:30.664Z,15.13
2018-05-03T00:28:59.587Z,15.33
2018-05-03T00:31:28.558Z,16.03
2018-05-03T00:33:57.545Z,15.20
2018-05-03T00:36:26.464Z,15.60
2018-05-03T00:38:55.366Z,15.63
2018-05-03T00:41:24.315Z,15.50
2018-05-03T00:43:53.425Z,14.43
2018-05-03T00:46:22.407Z,15.57
2018-05-03T00:48:51.387Z,15.10
2018-05-03T00:51:20.388Z,15.00
2018-05-03T00:53:49.312Z,14.87
2018-05-03T00:56:18.194Z,15.47
2018-05-03T00:58:47.152Z,14.03
2018-05-03T01:01:16.157Z,14.60
2018-05-03T01:03:45.045Z,16.50
2018-05-03T01:06:13.970Z,14.90
2018-05-03T01:08:42.928Z,14.73
2018-05-03T01:11:11.802Z,13.90
2018-05-03T01:13:40.799Z,15.07
2018-05-03T01:16:09.709Z,14.10
2018-05-03T01:18:38.571Z,14.33
2018-05-03T01:21:07.579Z,15.07
2018-05-03T01:23:36.486Z,13.43
2018-05-03T01:26:05.369Z,15.07
2018-05-03T01:28:34.310Z,16.10
2018-05-03T01:31:03.233Z,14.13
2018-05-03T01:33:32.104Z,15.63
2018-05-03T01:36:01.131Z,15.97
2018-05-03T01:38:30.043Z,16.63
2018-05-03T01:40:59.005Z,15.50
2018-05-03T01:43:27.917Z,16.17
2018-05-03T01:45:56.896Z,16.20
2018-05-03T01:48:25.815Z,15.87
2018-05-03T01:50:54.762Z,15.13
2018-05-03T01:53:23.646Z,16.20
2018-05-03T01:55:52.558Z,15.67
2018-05-03T01:58:21.538Z,16.20
2018-05-03T02:00:50.538Z,15.47
2018-05-03T02:03:19.417Z,15.23
2018-05-03T02:05:48.525Z,15.53
2018-05-03T02:08:17.529Z,15.63
2018-05-03T02:10:46.425Z,16.10
2018-05-03T02:13:15.390Z,15.67
2018-05-03T02:15:44.387Z,15.83
2018-05-03T02:18:13.409Z,15.87
2018-05-03T02:20:42.363Z,17.67
2018-05-03T02:23:11.238Z,16.90
2018-05-03T02:25:40.154Z,18.20
2018-05-03T02:28:09.149Z,16.20
2018-05-03T02:30:38.054Z,15.40
2018-05-03T02:33:06.937Z,19.87
2018-05-03T02:35:35.918Z,17.20
2018-05-03T02:38:04.905Z,16.10
2018-05-03T02:40:33.788Z,17.23
2018-05-03T02:43:02.697Z,17.97
2018-05-03T02:45:31.609Z,15.60
2018-05-03T02:48:00.505Z,16.87
2018-05-03T02:50:29.458Z,15.97
2018-05-03T02:52:58.345Z,16.43
2018-05-03T02:55:27.244Z,16.53
2018-05-03T02:57:56.238Z,16.97
2018-05-03T03:00:25.186Z,16.97
2018-05-03T03:02:54.118Z,15.47
2018-05-03T03:05:23.110Z,17.70
2018-05-03T03:07:52.015Z,16.03
2018-05-03T03:10:20.918Z,16.90
2018-05-03T03:12:49.865Z,16.67
2018-05-03T03:15:18.880Z,17.13
2018-05-03T03:17:47.757Z,17.43
2018-05-03T03:20:16.758Z,17.60
2018-05-03T03:22:45.669Z,16.53
2018-05-03T03:25:14.641Z,17.57
2018-05-03T03:27:43.834Z,16.90
2018-05-03T03:30:12.755Z,18.20
2018-05-03T03:32:41.727Z,17.20
2018-05-03T03:35:10.708Z,18.80
2018-05-03T03:37:39.701Z,19.53
2018-05-03T03:40:08.607Z,18.90
2018-05-03T03:42:37.545Z,16.80
2018-05-03T03:45:06.589Z,18.07
2018-05-03T03:47:35.571Z,17.93
2018-05-03T03:50:04.560Z,19.17
2018-05-03T03:52:33.456Z,18.93
2018-05-03T03:55:02.351Z,18.70
2018-05-03T03:57:31.337Z,17.87
2018-05-03T04:00:00.370Z,17.90
2018-05-03T04:02:29.330Z,17.87
2018-05-03T04:04:58.318Z,18.50
2018-05-03T04:07:27.317Z,17.93
2018-05-03T04:09:56.188Z,17.37
2018-05-03T04:12:25.159Z,19.50
2018-05-03T04:14:54.067Z,18.70
2018-05-03T04:17:22.919Z,18.33
2018-05-03T04:19:51.857Z,19.87
2018-05-03T04:22:20.843Z,20.07
2018-05-03T04:24:49.651Z,16.93
2018-05-03T04:27:18.636Z,19.63
2018-05-03T04:29:47.529Z,18.63
2018-05-03T04:32:16.454Z,18.70
2018-05-03T04:34:45.399Z,19.33
2018-05-03T04:37:14.286Z,18.50
2018-05-03T04:39:43.299Z,18.00
2018-05-03T04:42:12.223Z,18.40
2018-05-03T04:44:41.143Z,20.13
2018-05-03T04:47:10.048Z,22.17
2018-05-03T04:49:38.989Z,24.30
2018-05-03T04:52:07.878Z,29.20
2018-05-03T04:54:36.758Z,28.67
2018-05-03T04:57:05.782Z,29.27
2018-05-03T04:59:34.719Z,27.30
2018-05-03T05:02:03.607Z,21.60
2018-05-03T05:04:32.596Z,22.23
2018-05-03T05:07:01.528Z,20.97
2018-05-03T05:09:30.489Z,19.80
2018-05-03T05:11:59.471Z,17.87
2018-05-03T05:14:28.489Z,19.73
2018-05-03T05:16:57.409Z,20.07
2018-05-03T05:19:26.348Z,23.60
2018-05-03T05:21:55.346Z,21.63
2018-05-03T05:24:24.341Z,22.00
2018-05-03T05:26:53.256Z,21.00
2018-05-03T05:29:22.153Z,19.97
2018-05-03T05:31:51.106Z,19.17
2018-05-03T05:34:20.048Z,19.00
2018-05-03T05:36:48.979Z,22.20
2018-05-03T05:39:17.979Z,20.57
2018-05-03T05:41:46.969Z,20.87
2018-05-03T05:44:15.979Z,20.70
2018-05-03T05:46:44.866Z,18.33
2018-05-03T05:49:13.839Z,19.70
2018-05-03T05:51:42.833Z,19.50
2018-05-03T05:54:11.724Z,19.53
2018-05-03T05:56:40.684Z,21.33
2018-05-03T05:59:09.606Z,19.70
2018-05-03T06:01:38.502Z,21.47
2018-05-03T06:04:07.519Z,19.80
2018-05-03T06:06:36.365Z,21.80
2018-05-03T06:09:05.269Z,19.87
2018-05-03T06:11:34.205Z,20.10
2018-05-03T06:14:03.151Z,19.67
2018-05-03T06:16:32.167Z,18.53
2018-05-03T06:19:01.119Z,21.03
2018-05-03T06:21:30.092Z,19.80
2018-05-03T06:23:59.030Z,21.60
2018-05-03T06:26:28.039Z,18.53
2018-05-03T06:28:57.018Z,20.20
2018-05-03T06:31:25.938Z,18.57
2018-05-03T06:33:55.017Z,18.43
2018-05-03T06:36:23.997Z,19.37
2018-05-03T06:38:52.933Z,21.23
2018-05-03T06:41:21.874Z,20.20
2018-05-03T06:43:50.891Z,18.77
2018-05-03T06:46:19.867Z,18.50
2018-05-03T06:48:48.842Z,19.53
2018-05-03T06:51:17.756Z,19.57
2018-05-03T06:53:46.664Z,20.10
2018-05-03T06:56:15.616Z,18.60
2018-05-03T06:58:44.616Z,20.37
2018-05-03T07:01:13.623Z,20.33
2018-05-03T07:03:42.589Z,20.60
2018-05-03T07:06:11.500Z,20.60
2018-05-03T07:08:40.413Z,19.87
2018-05-03T07:11:09.368Z,19.23
2018-05-03T07:13:38.369Z,19.47
2018-05-03T07:16:07.373Z,18.73
2018-05-03T07:18:36.358Z,18.27
2018-05-03T07:21:05.349Z,19.50
2018-05-03T07:23:34.337Z,19.63
2018-05-03T07:26:03.374Z,19.63
2018-05-03T07:28:32.250Z,18.47
2018-05-03T07:31:01.200Z,18.00
2018-05-03T07:33:30.196Z,18.20
2018-05-03T07:35:59.208Z,18.20
2018-05-03T07:38:28.100Z,16.90
2018-05-03T07:40:57.125Z,17.93
2018-05-03T07:43:25.998Z,16.43
2018-05-03T07:45:54.874Z,17.37
2018-05-03T07:48:23.842Z,16.10
2018-05-03T07:50:52.732Z,15.73
2018-05-03T07:53:21.742Z,17.97
2018-05-03T07:55:50.714Z,16.20
2018-05-03T07:58:19.720Z,14.90
2018-05-03T08:00:48.628Z,16.93
2018-05-03T08:03:17.713Z,15.83
2018-05-03T08:05:46.666Z,16.47
2018-05-03T08:08:15.577Z,16.00
2018-05-03T08:10:44.682Z,15.83
2018-05-03T08:13:13.587Z,16.10
2018-05-03T08:15:42.572Z,16.77
2018-05-03T08:18:11.544Z,16.67
2018-05-03T08:20:40.556Z,16.80
2018-05-03T08:23:09.561Z,15.23
2018-05-03T08:25:38.652Z,16.90
2018-05-03T08:28:07.637Z,15.70
2018-05-03T08:30:36.636Z,17.60
2018-05-03T08:33:06.420Z,15.00
2018-05-03T08:35:35.348Z,16.97
2018-05-03T08:38:04.306Z,16.90
2018-05-03T08:40:33.300Z,16.37
2018-05-03T08:43:02.316Z,16.03
2018-05-03T08:45:31.237Z,15.60
2018-05-03T08:48:00.211Z,15.33
2018-05-03T08:50:29.189Z,15.40
2018-05-03T08:52:58.111Z,14.00
2018-05-03T08:55:27.119Z,13.97
2018-05-03T08:57:56.040Z,13.90
2018-05-03T09:00:25.056Z,14.87
2018-05-03T09:02:54.010Z,13.60
2018-05-03T09:05:23.029Z,13.87
2018-05-03T09:07:52.084Z,12.73
2018-05-03T09:10:21.006Z,12.40
2018-05-03T09:12:50.003Z,13.20
2018-05-03T09:15:19.003Z,13.60
2018-05-03T09:17:48.052Z,12.60
2018-05-03T09:20:16.990Z,13.47
2018-05-03T09:22:45.914Z,13.17
2018-05-03T09:25:14.854Z,14.07
2018-05-03T09:27:43.880Z,15.90
2018-05-03T09:30:12.787Z,14.17
2018-05-03T09:32:41.860Z,12.13
2018-05-03T09:35:10.826Z,12.57
2018-05-03T09:37:39.752Z,10.93
2018-05-03T09:40:08.965Z,10.70
2018-05-03T09:42:38.025Z,11.80
2018-05-03T09:45:06.951Z,10.13
2018-05-03T09:47:35.911Z,10.40
2018-05-03T09:50:04.881Z,9.60
2018-05-03T09:52:33.853Z,9.43
2018-05-03T09:55:02.874Z,9.70
2018-05-03T09:57:31.884Z,9.73
2018-05-03T10:00:00.824Z,10.00
2018-05-03T10:02:29.863Z,9.83
2018-05-03T10:04:58.795Z,8.83
2018-05-03T10:07:27.728Z,10.17
2018-05-03T10:09:56.682Z,8.97
2018-05-03T10:12:25.589Z,8.87
2018-05-03T10:14:54.511Z,8.27
2018-05-03T10:17:23.602Z,9.03
2018-05-03T10:19:52.519Z,9.10
2018-05-03T10:22:21.515Z,8.90
2018-05-03T10:24:50.609Z,7.60
2018-05-03T10:27:19.546Z,9.00
2018-05-03T10:29:48.450Z,8.27
2018-05-03T10:32:17.419Z,8.53
2018-05-03T10:34:46.335Z,7.27
2018-05-03T10:37:15.211Z,6.80
2018-05-03T10:39:44.249Z,8.73
2018-05-03T10:42:13.204Z,8.03
2018-05-03T10:44:42.097Z,8.33
2018-05-03T10:47:11.122Z,8.67
2018-05-03T10:49:40.059Z,8.43
2018-05-03T10:52:08.978Z,7.33
2018-05-03T10:54:37.930Z,8.47
2018-05-03T10:57:06.861Z,10.47
2018-05-03T10:59:35.748Z,11.50
2018-05-03T11:02:04.871Z,11.20
2018-05-03T11:04:33.802Z,13.83
2018-05-03T11:07:02.724Z,13.87
2018-05-03T11:09:31.677Z,11.40
2018-05-03T11:12:00.612Z,13.07
2018-05-03T11:14:29.610Z,12.70
2018-05-03T11:16:58.572Z,13.10
2018-05-03T11:19:27.610Z,12.10
2018-05-03T11:21:56.610Z,13.77
2018-05-03T11:24:25.620Z,11.93
2018-05-03T11:26:54.584Z,12.37
2018-05-03T11:29:23.499Z,12.97
2018-05-03T11:31:52.547Z,12.43
2018-05-03T11:34:21.483Z,12.80
2018-05-03T11:36:50.553Z,12.33
2018-05-03T11:39:19.540Z,13.90
2018-05-03T11:41:48.538Z,11.70
2018-05-03T11:44:17.473Z,13.90
2018-05-03T11:46:46.424Z,12.83
2018-05-03T11:49:15.408Z,13.40
2018-05-03T11:51:44.310Z,12.70
2018-05-03T11:54:13.283Z,11.90
2018-05-03T11:56:42.289Z,11.83
2018-05-03T11:59:11.317Z,11.47
2018-05-03T12:01:40.253Z,10.07
2018-05-03T12:04:09.255Z,10.23
2018-05-03T12:06:38.254Z,10.23
2018-05-03T12:09:07.230Z,9.83
2018-05-03T12:11:36.168Z,8.80
2018-05-03T12:14:05.150Z,9.30
2018-05-03T12:16:34.218Z,8.97
2018-05-03T12:19:03.144Z,8.43
2018-05-03T12:21:32.089Z,8.67
2018-05-03T12:24:01.083Z,8.50
2018-05-03T12:26:30.090Z,7.53
2018-05-03T12:28:59.080Z,8.40
2018-05-03T12:31:28.063Z,8.87
2018-05-03T12:33:57.024Z,9.63
2018-05-03T12:36:25.942Z,9.10
2018-05-03T12:38:54.934Z,9.07
2018-05-03T12:41:23.845Z,9.17
2018-05-03T12:43:52.801Z,9.10
2018-05-03T12:46:22.131Z,8.53
2018-05-03T12:48:51.136Z,8.60
2018-05-03T12:51:20.044Z,8.87
2018-05-03T12:53:49.001Z,8.40
2018-05-03T12:56:17.886Z,8.80
2018-05-03T12:58:46.882Z,8.43
2018-05-03T13:01:15.887Z,7.13
2018-05-03T13:03:44.788Z,7.70
2018-05-03T13:06:13.777Z,7.97
2018-05-03T13:08:42.742Z,8.50
2018-05-03T13:11:11.759Z,7.60
2018-05-03T13:13:40.749Z,8.50
2018-05-03T13:16:09.720Z,8.00
2018-05-03T13:18:38.625Z,6.73
2018-05-03T13:21:07.551Z,7.47
2018-05-03T13:23:36.621Z,8.33
2018-05-03T13:26:05.718Z,8.67
2018-05-03T13:28:34.684Z,8.23
2018-05-03T13:31:03.647Z,8.27
2018-05-03T13:33:32.564Z,7.77
2018-05-03T13:36:01.571Z,7.50
2018-05-03T13:38:30.568Z,7.07
2018-05-03T13:40:59.514Z,8.37
2018-05-03T13:43:28.436Z,7.73
2018-05-03T13:45:58.488Z,7.93
2018-05-03T13:48:27.446Z,7.27
2018-05-03T13:50:56.357Z,8.07
2018-05-03T13:53:25.403Z,7.10
2018-05-03T13:55:54.339Z,7.87
2018-05-03T13:58:23.340Z,7.60
2018-05-03T14:00:52.337Z,7.10
2018-05-03T14:03:21.301Z,8.87
2018-05-03T14:05:50.314Z,17.23
2018-05-03T14:08:19.277Z,8.23
2018-05-03T14:10:48.289Z,7.93
2018-05-03T14:13:17.223Z,7.27
2018-05-03T14:15:46.207Z,8.13
2018-05-03T14:18:15.143Z,7.80
2018-05-03T14:20:44.050Z,8.97
2018-05-03T14:23:13.156Z,9.30
2018-05-03T14:25:42.129Z,8.13
2018-05-03T14:28:11.116Z,8.60
2018-05-03T14:30:40.092Z,8.43
2018-05-03T14:33:09.001Z,8.43
2018-05-03T14:35:38.012Z,8.50
2018-05-03T14:38:07.211Z,8.53
2018-05-03T14:40:36.187Z,18.53
2018-05-03T14:43:05.121Z,8.80
2018-05-03T14:45:34.188Z,12.77
2018-05-03T14:48:03.145Z,10.77
2018-05-03T14:50:32.179Z,9.00
2018-05-03T14:53:01.248Z,10.13
2018-05-03T14:55:30.243Z,8.93
2018-05-03T14:57:59.248Z,8.20
2018-05-03T15:00:28.345Z,8.10
2018-05-03T15:02:57.318Z,12.33
2018-05-03T15:05:26.223Z,11.37
2018-05-03T15:07:55.322Z,10.10
2018-05-03T15:10:24.312Z,10.80
2018-05-03T15:12:53.312Z,11.90
2018-05-03T15:15:22.233Z,12.43
2018-05-03T15:17:51.168Z,14.20
2018-05-03T15:20:20.181Z,12.27
2018-05-03T15:22:49.156Z,13.90
2018-05-03T15:25:18.155Z,14.00
2018-05-03T15:27:47.145Z,12.63
2018-05-03T15:30:16.115Z,13.40
2018-05-03T15:32:44.999Z,13.67
2018-05-03T15:35:14.029Z,13.37
2018-05-03T15:37:42.958Z,13.77
2018-05-03T15:40:11.892Z,13.43
2018-05-03T15:42:40.813Z,13.33
2018-05-03T15:45:09.897Z,12.87
2018-05-03T15:47:38.891Z,13.70
2018-05-03T15:50:07.795Z,12.27
2018-05-03T15:52:37.019Z,12.50
2018-05-03T15:55:06.064Z,11.37
2018-05-03T15:57:35.067Z,11.50
2018-05-03T16:00:04.015Z,11.10
2018-05-03T16:02:32.931Z,10.37
2018-05-03T16:05:01.952Z,10.80
2018-05-03T16:07:31.046Z,11.13
2018-05-03T16:09:59.998Z,9.40
2018-05-03T16:12:28.937Z,12.87
2018-05-03T16:14:57.876Z,10.90
2018-05-03T16:17:26.909Z,11.60
2018-05-03T16:19:55.825Z,9.87
2018-05-03T16:22:24.786Z,9.90
2018-05-03T16:24:53.699Z,9.43
2018-05-03T16:27:22.626Z,9.30
2018-05-03T16:29:51.617Z,9.83
2018-05-03T16:32:25.348Z,10.27
2018-05-03T16:34:54.324Z,9.63
2018-05-03T16:37:23.228Z,9.37
2018-05-03T16:39:52.131Z,9.10
2018-05-03T16:42:21.061Z,8.70
2018-05-03T16:44:49.980Z,8.73
2018-05-03T16:47:18.870Z,6.90
2018-05-03T16:49:47.886Z,7.13
2018-05-03T16:52:16.941Z,6.47
2018-05-03T16:54:45.995Z,6.17
2018-05-03T16:57:15.086Z,6.47
2018-05-03T16:59:44.090Z,7.33
2018-05-03T17:02:13.077Z,7.10
2018-05-03T17:04:42.070Z,8.30
2018-05-03T17:07:11.058Z,7.80
2018-05-03T17:09:39.947Z,7.37
2018-05-03T17:12:08.931Z,8.07
2018-05-03T17:14:37.853Z,9.50
2018-05-03T17:17:06.802Z,9.70
2018-05-03T17:19:35.780Z,9.43
2018-05-03T17:22:04.667Z,10.63
2018-05-03T17:24:33.597Z,10.90
2018-05-03T17:27:02.571Z,10.17
2018-05-03T17:29:31.560Z,11.40
2018-05-03T17:32:00.499Z,11.73
2018-05-03T17:34:29.462Z,12.37
2018-05-03T17:36:58.370Z,11.57
2018-05-03T17:39:27.321Z,10.37
2018-05-03T17:41:56.318Z,11.13
2018-05-03T17:44:25.326Z,12.23
2018-05-03T17:46:54.260Z,12.43
2018-05-03T17:49:23.312Z,11.43
2018-05-03T17:51:52.209Z,12.70
2018-05-03T17:54:21.178Z,12.80
2018-05-03T17:56:50.183Z,12.83
2018-05-03T17:59:19.063Z,13.17
2018-05-03T18:01:48.059Z,13.73
2018-05-03T18:04:17.042Z,13.70
2018-05-03T18:06:45.973Z,12.97
2018-05-03T18:09:14.887Z,13.80
2018-05-03T18:11:43.852Z,14.30
2018-05-03T18:14:12.937Z,14.57
2018-05-03T18:16:41.891Z,14.20
2018-05-03T18:19:10.893Z,16.03
2018-05-03T18:21:39.821Z,15.87
2018-05-03T18:24:08.759Z,16.27
2018-05-03T18:26:37.773Z,16.83
2018-05-03T18:29:06.781Z,16.67
2018-05-03T18:31:35.759Z,17.63
2018-05-03T18:34:04.757Z,16.90
2018-05-03T18:36:33.708Z,18.87
2018-05-03T18:39:02.746Z,17.63
2018-05-03T18:41:31.695Z,18.87
2018-05-03T18:44:00.667Z,19.20
2018-05-03T18:46:29.634Z,19.30
2018-05-03T18:48:58.733Z,18.67
2018-05-03T18:51:27.695Z,19.47
2018-05-03T18:53:56.608Z,19.77
2018-05-03T18:56:25.965Z,21.00
2018-05-03T18:58:54.855Z,19.17
2018-05-03T19:01:23.788Z,17.97
2018-05-03T19:03:52.807Z,20.10
2018-05-03T19:06:21.712Z,21.17
2018-05-03T19:08:50.776Z,18.93
2018-05-03T19:11:19.769Z,19.37
2018-05-03T19:13:48.735Z,19.90
2018-05-03T19:16:17.732Z,20.03
2018-05-03T19:18:46.834Z,19.23
2018-05-03T19:21:15.813Z,19.70
2018-05-03T19:23:44.788Z,19.00
2018-05-03T19:26:14.620Z,19.77
2018-05-03T19:28:43.631Z,18.10
2018-05-03T19:31:12.576Z,19.60
2018-05-03T19:33:41.539Z,19.17
2018-05-03T19:36:10.483Z,18.17
2018-05-03T19:38:39.395Z,18.20
2018-05-03T19:41:08.482Z,18.27
2018-05-03T19:43:37.443Z,16.77
2018-05-03T19:46:06.384Z,17.70
2018-05-03T19:48:36.491Z,18.37
2018-05-03T19:51:05.473Z,18.63
2018-05-03T19:53:34.455Z,18.60
2018-05-03T19:56:03.563Z,17.40
2018-05-03T19:58:32.568Z,18.87
2018-05-03T20:01:01.537Z,18.47
2018-05-03T20:03:30.493Z,20.80
2018-05-03T20:05:59.396Z,17.43
2018-05-03T20:08:28.299Z,18.70
2018-05-03T20:10:58.219Z,18.80
2018-05-03T20:13:27.148Z,19.60
2018-05-03T20:15:56.107Z,17.40
2018-05-03T20:18:25.075Z,19.20
2018-05-03T20:20:53.989Z,17.80
2018-05-03T20:23:22.899Z,20.40
2018-05-03T20:25:51.865Z,18.80
2018-05-03T20:28:20.872Z,19.03
2018-05-03T20:30:49.871Z,18.70
2018-05-03T20:33:18.843Z,19.10
2018-05-03T20:35:47.860Z,19.63
2018-05-03T20:38:16.840Z,20.87
2018-05-03T20:40:45.831Z,18.27
2018-05-03T20:43:14.849Z,19.30
2018-05-03T20:45:43.738Z,18.37
2018-05-03T20:48:12.709Z,18.70
2018-05-03T20:50:41.625Z,17.60
2018-05-03T20:53:10.588Z,19.30
2018-05-03T20:55:39.538Z,18.50
2018-05-03T20:58:08.578Z,19.17
2018-05-03T21:00:37.680Z,19.40
2018-05-03T21:03:06.648Z,20.70
2018-05-03T21:05:35.573Z,19.73
2018-05-03T21:08:04.534Z,20.07
2018-05-03T21:10:33.478Z,19.50
2018-05-03T21:13:02.420Z,19.67
2018-05-03T21:15:31.437Z,18.40
2018-05-03T21:18:00.404Z,19.87
2018-05-03T21:20:29.427Z,20.03
2018-05-03T21:22:58.340Z,18.93
2018-05-03T21:25:27.316Z,19.10
2018-05-03T21:27:56.265Z,18.80
2018-05-03T21:30:25.596Z,19.10
2018-05-03T21:32:54.559Z,18.47
2018-05-03T21:35:23.549Z,21.03
2018-05-03T21:37:52.488Z,18.73
2018-05-03T21:40:21.556Z,18.73
2018-05-03T21:42:50.481Z,19.10
2018-05-03T21:45:19.379Z,17.97
2018-05-03T21:47:48.424Z,18.73
2018-05-03T21:50:17.342Z,17.80
2018-05-03T21:52:46.295Z,18.03
2018-05-03T21:55:15.299Z,18.13
2018-05-03T21:57:44.285Z,17.97
2018-05-03T22:00:13.297Z,16.47
2018-05-03T22:02:42.586Z,16.27
2018-05-03T22:05:11.582Z,16.00
2018-05-03T22:07:40.572Z,14.50
2018-05-03T22:10:09.516Z,13.50
2018-05-03T22:12:38.553Z,13.73
2018-05-03T22:15:10.629Z,12.53
2018-05-03T22:17:39.610Z,10.67
2018-05-03T22:20:08.599Z,10.17
2018-05-03T22:22:37.536Z,9.40
2018-05-03T22:25:06.493Z,8.53
2018-05-03T22:27:35.383Z,7.63
2018-05-03T22:30:04.340Z,7.20
2018-05-03T22:32:33.245Z,6.80
2018-05-03T22:35:02.125Z,7.27
2018-05-03T22:37:31.133Z,7.40
2018-05-03T22:40:00.034Z,7.33
2018-05-03T22:42:28.921Z,6.80
2018-05-03T22:44:57.877Z,7.30
2018-05-03T22:47:26.811Z,7.60
2018-05-03T22:49:55.738Z,7.23
2018-05-03T22:52:24.678Z,6.57
2018-05-03T22:54:53.755Z,6.47
2018-05-03T22:57:22.603Z,6.87
2018-05-03T22:59:51.544Z,6.30
2018-05-03T23:02:20.442Z,6.90
2018-05-03T23:04:49.324Z,6.63
2018-05-03T23:07:18.284Z,7.40
2018-05-03T23:09:47.190Z,7.00
2018-05-03T23:12:16.061Z,7.27
2018-05-03T23:14:45.043Z,7.40
2018-05-03T23:17:13.984Z,7.70
2018-05-03T23:19:42.895Z,7.53
2018-05-03T23:22:11.803Z,7.50
2018-05-03T23:24:40.756Z,6.17
2018-05-03T23:27:09.624Z,8.07
2018-05-03T23:29:38.550Z,7.93
2018-05-03T23:32:07.465Z,7.83
2018-05-03T23:34:36.428Z,7.77
2018-05-03T23:37:05.421Z,7.77
2018-05-03T23:39:34.300Z,7.87
2018-05-03T23:42:03.322Z,7.70
2018-05-03T23:44:32.285Z,7.53
2018-05-03T23:47:01.186Z,8.47
2018-05-03T23:49:30.099Z,8.90
2018-05-03T23:51:59.031Z,9.30
2018-05-03T23:54:27.945Z,9.30
2018-05-03T23:56:56.956Z,9.00
2018-05-03T23:59:25.952Z,8.77
